AAL407 KBUF-CYXE
Flight info
| Callsign | AAL407 |
|---|---|
| Flight time | 3h 5m |
| Altitude | 40000 |
| Route | BUF4 DCT KP06Q DCT STNRD DCT KP18K DCT UNEYA DCT YBR DCT AMUNA DUNEM7 |
| Aircraft | B789/H-SDE1E2E3FGHIJ2J3J4J5M1RWXY/LB1D1 |
Departure
| Time | 2026-04-23 16:38 |
|---|---|
| Airport | Buffalo Niagara International Airport (KBUF) |
Arrival
| Time | 2026-04-23 19:43 |
|---|---|
| Airport | Saskatoon John G. Diefenbaker International Airport (CYXE) |
| Time | Latitude | Longitude | Altitude | Speed | Heading |
|---|---|---|---|---|---|
| 2026-04-23 16:32 | 42.93612 | -78.73112 | 737 ft | 0 kts | 133° |
| 2026-04-23 16:33 | 42.93615 | -78.73115 | 737 ft | 2 kts | 133° |
| 2026-04-23 16:34 | 42.93626 | -78.73131 | 737 ft | 3 kts | 133° |
| 2026-04-23 16:34 | 42.93639 | -78.73150 | 737 ft | 3 kts | 133° |
| 2026-04-23 16:34 | 42.93653 | -78.73170 | 737 ft | 3 kts | 133° |
| 2026-04-23 16:34 | 42.93663 | -78.73184 | 737 ft | 0 kts | 133° |
| 2026-04-23 16:35 | 42.93657 | -78.73180 | 737 ft | 2 kts | 162° |
| 2026-04-23 16:35 | 42.93635 | -78.73189 | 737 ft | 6 kts | 202° |
| 2026-04-23 16:35 | 42.93592 | -78.73246 | 737 ft | 12 kts | 230° |
| 2026-04-23 16:36 | 42.93525 | -78.73346 | 737 ft | 17 kts | 224° |
| 2026-04-23 16:36 | 42.93434 | -78.73471 | 737 ft | 21 kts | 225° |
| 2026-04-23 16:36 | 42.93339 | -78.73631 | 737 ft | 23 kts | 239° |
| 2026-04-23 16:36 | 42.93230 | -78.73805 | 737 ft | 25 kts | 225° |
| 2026-04-23 16:37 | 42.93105 | -78.73980 | 737 ft | 24 kts | 237° |
| 2026-04-23 16:37 | 42.93140 | -78.74111 | 737 ft | 14 kts | 18° |
| 2026-04-23 16:37 | 42.93222 | -78.74033 | 737 ft | 15 kts | 40° |
| 2026-04-23 16:37 | 42.93435 | -78.73758 | 737 ft | 90 kts | 45° |
| 2026-04-23 16:38 | 42.94114 | -78.72871 | 739 ft | 176 kts | 45° |
| 2026-04-23 16:38 | 42.95049 | -78.71661 | 1550 ft | 186 kts | 44° |
| 2026-04-23 16:38 | 42.95980 | -78.70444 | 2729 ft | 186 kts | 45° |
| 2026-04-23 16:38 | 42.96938 | -78.69180 | 3516 ft | 199 kts | 44° |
| 2026-04-23 16:39 | 42.97982 | -78.67806 | 4203 ft | 218 kts | 43° |
| 2026-04-23 16:39 | 42.99120 | -78.66313 | 4886 ft | 235 kts | 43° |
| 2026-04-23 16:39 | 43.00339 | -78.64716 | 5582 ft | 250 kts | 43° |
| 2026-04-23 16:39 | 43.01645 | -78.63078 | 6379 ft | 260 kts | 38° |
| 2026-04-23 16:40 | 43.03339 | -78.62132 | 7127 ft | 270 kts | 8° |
| 2026-04-23 16:40 | 43.05206 | -78.62471 | 7987 ft | 277 kts | 340° |
| 2026-04-23 16:40 | 43.06747 | -78.64007 | 8848 ft | 283 kts | 313° |
| 2026-04-23 16:40 | 43.07895 | -78.66195 | 9836 ft | 283 kts | 306° |
| 2026-04-23 16:41 | 43.09050 | -78.68417 | 10619 ft | 291 kts | 307° |
| 2026-04-23 16:41 | 43.10295 | -78.70676 | 11186 ft | 304 kts | 308° |
| 2026-04-23 16:41 | 43.11630 | -78.73005 | 11696 ft | 318 kts | 308° |
| 2026-04-23 16:41 | 43.13046 | -78.75427 | 12148 ft | 333 kts | 308° |
| 2026-04-23 16:42 | 43.14539 | -78.77955 | 12636 ft | 345 kts | 309° |
| 2026-04-23 16:42 | 43.16044 | -78.80492 | 13191 ft | 353 kts | 309° |
| 2026-04-23 16:42 | 43.17607 | -78.83120 | 13827 ft | 358 kts | 309° |
| 2026-04-23 16:42 | 43.19197 | -78.85793 | 14511 ft | 362 kts | 308° |
| 2026-04-23 16:43 | 43.20826 | -78.88435 | 15203 ft | 365 kts | 311° |
| 2026-04-23 16:43 | 43.22559 | -78.91018 | 15899 ft | 368 kts | 312° |
| 2026-04-23 16:43 | 43.24307 | -78.93605 | 16597 ft | 370 kts | 311° |
| 2026-04-23 16:43 | 43.26058 | -78.96221 | 17291 ft | 372 kts | 311° |
| 2026-04-23 16:44 | 43.27805 | -78.98857 | 17920 ft | 376 kts | 311° |
| 2026-04-23 16:44 | 43.29546 | -79.01499 | 18519 ft | 379 kts | 311° |
| 2026-04-23 16:44 | 43.31317 | -79.04197 | 19107 ft | 383 kts | 310° |
| 2026-04-23 16:44 | 43.33109 | -79.06932 | 19700 ft | 386 kts | 310° |
| 2026-04-23 16:45 | 43.34908 | -79.09683 | 20274 ft | 389 kts | 310° |
| 2026-04-23 16:45 | 43.36724 | -79.12465 | 20853 ft | 392 kts | 310° |
| 2026-04-23 16:45 | 43.38547 | -79.15263 | 21387 ft | 395 kts | 310° |
| 2026-04-23 16:45 | 43.40385 | -79.18085 | 21914 ft | 398 kts | 310° |
| 2026-04-23 16:46 | 43.42246 | -79.20946 | 22426 ft | 402 kts | 310° |
| 2026-04-23 16:46 | 43.44124 | -79.23836 | 22925 ft | 405 kts | 310° |
| 2026-04-23 16:46 | 43.45982 | -79.26696 | 23428 ft | 408 kts | 310° |
| 2026-04-23 16:46 | 43.47264 | -79.28674 | 23756 ft | 411 kts | 310° |
| 2026-04-23 16:47 | 43.49559 | -79.32212 | 24381 ft | 414 kts | 310° |
| 2026-04-23 16:47 | 43.51460 | -79.35146 | 24917 ft | 416 kts | 309° |
| 2026-04-23 16:47 | 43.53386 | -79.38122 | 25460 ft | 418 kts | 309° |
| 2026-04-23 16:47 | 43.55326 | -79.41125 | 25982 ft | 419 kts | 309° |
| 2026-04-23 16:48 | 43.57271 | -79.44139 | 26469 ft | 422 kts | 309° |
| 2026-04-23 16:48 | 43.59226 | -79.47172 | 26951 ft | 424 kts | 309° |
| 2026-04-23 16:48 | 43.61193 | -79.50227 | 27397 ft | 427 kts | 309° |
| 2026-04-23 16:48 | 43.63167 | -79.53297 | 27927 ft | 427 kts | 308° |
| 2026-04-23 16:49 | 43.64474 | -79.55328 | 28258 ft | 428 kts | 308° |
| 2026-04-23 16:49 | 43.67121 | -79.59456 | 28897 ft | 429 kts | 308° |
| 2026-04-23 16:49 | 43.69103 | -79.62540 | 29342 ft | 431 kts | 308° |
| 2026-04-23 16:49 | 43.71099 | -79.65644 | 29836 ft | 432 kts | 308° |
| 2026-04-23 16:50 | 43.73108 | -79.68776 | 30220 ft | 434 kts | 308° |
| 2026-04-23 16:50 | 43.75088 | -79.71891 | 30510 ft | 439 kts | 308° |
| 2026-04-23 16:50 | 43.77119 | -79.75079 | 30912 ft | 441 kts | 308° |
| 2026-04-23 16:50 | 43.79156 | -79.78272 | 31374 ft | 442 kts | 308° |
| 2026-04-23 16:51 | 43.81192 | -79.81456 | 31899 ft | 441 kts | 307° |
| 2026-04-23 16:51 | 43.83225 | -79.84637 | 32406 ft | 440 kts | 307° |
| 2026-04-23 16:51 | 43.85243 | -79.87814 | 32926 ft | 439 kts | 307° |
| 2026-04-23 16:51 | 43.87253 | -79.90984 | 33436 ft | 437 kts | 306° |
| 2026-04-23 16:52 | 43.88578 | -79.93076 | 33764 ft | 436 kts | 306° |
| 2026-04-23 16:52 | 43.90576 | -79.96232 | 34253 ft | 434 kts | 306° |
| 2026-04-23 16:52 | 43.92563 | -79.99373 | 34728 ft | 432 kts | 306° |
| 2026-04-23 16:52 | 43.94538 | -80.02497 | 35187 ft | 431 kts | 306° |
| 2026-04-23 16:53 | 43.96510 | -80.05619 | 35657 ft | 429 kts | 306° |
| 2026-04-23 16:53 | 43.98467 | -80.08720 | 36088 ft | 427 kts | 306° |
| 2026-04-23 16:53 | 44.00421 | -80.11822 | 36498 ft | 425 kts | 306° |
| 2026-04-23 16:53 | 44.02362 | -80.14906 | 36893 ft | 424 kts | 306° |
| 2026-04-23 16:54 | 44.04306 | -80.17996 | 37265 ft | 422 kts | 305° |
| 2026-04-23 16:54 | 44.06228 | -80.21056 | 37609 ft | 421 kts | 306° |
| 2026-04-23 16:54 | 44.08150 | -80.24118 | 37952 ft | 419 kts | 306° |
| 2026-04-23 16:54 | 44.10071 | -80.27180 | 38282 ft | 418 kts | 305° |
| 2026-04-23 16:55 | 44.11951 | -80.30184 | 38589 ft | 417 kts | 305° |
| 2026-04-23 16:55 | 44.13853 | -80.33226 | 38871 ft | 416 kts | 305° |
| 2026-04-23 16:55 | 44.15751 | -80.36263 | 39131 ft | 415 kts | 305° |
| 2026-04-23 16:55 | 44.17648 | -80.39304 | 39364 ft | 415 kts | 305° |
| 2026-04-23 16:56 | 44.19540 | -80.42339 | 39570 ft | 415 kts | 305° |
| 2026-04-23 16:56 | 44.21432 | -80.45376 | 39768 ft | 415 kts | 305° |
| 2026-04-23 16:56 | 44.23330 | -80.48426 | 39899 ft | 416 kts | 305° |
| 2026-04-23 16:56 | 44.25235 | -80.51492 | 39921 ft | 419 kts | 305° |
| 2026-04-23 16:57 | 44.29084 | -80.57700 | 39939 ft | 427 kts | 306° |
| 2026-04-23 16:57 | 44.32990 | -80.64008 | 39934 ft | 430 kts | 306° |
| 2026-04-23 16:58 | 44.36881 | -80.70303 | 39932 ft | 430 kts | 306° |
| 2026-04-23 16:58 | 44.40801 | -80.76659 | 39943 ft | 431 kts | 306° |
| 2026-04-23 16:59 | 44.44723 | -80.83035 | 39934 ft | 432 kts | 306° |
| 2026-04-23 16:59 | 44.48636 | -80.89413 | 39938 ft | 433 kts | 306° |
| 2026-04-23 17:00 | 44.52564 | -80.95824 | 39944 ft | 433 kts | 306° |
| 2026-04-23 17:00 | 44.56483 | -81.02241 | 39933 ft | 434 kts | 305° |
| 2026-04-23 17:01 | 44.60411 | -81.08689 | 39945 ft | 434 kts | 305° |
| 2026-04-23 17:01 | 44.64349 | -81.15164 | 39939 ft | 435 kts | 306° |
| 2026-04-23 17:02 | 44.68248 | -81.21586 | 39936 ft | 435 kts | 306° |
| 2026-04-23 17:02 | 44.72176 | -81.28075 | 39948 ft | 436 kts | 306° |
| 2026-04-23 17:03 | 44.76112 | -81.34591 | 39935 ft | 436 kts | 305° |
| 2026-04-23 17:03 | 44.80038 | -81.41106 | 39943 ft | 437 kts | 306° |
| 2026-04-23 17:04 | 44.83940 | -81.47597 | 39943 ft | 437 kts | 306° |
| 2026-04-23 17:04 | 44.87870 | -81.54148 | 39935 ft | 437 kts | 306° |
| 2026-04-23 17:05 | 44.91800 | -81.60714 | 39946 ft | 438 kts | 306° |
| 2026-04-23 17:05 | 44.95734 | -81.67305 | 39939 ft | 439 kts | 306° |
| 2026-04-23 17:06 | 44.99650 | -81.73878 | 39938 ft | 439 kts | 306° |
| 2026-04-23 17:06 | 45.03589 | -81.80508 | 39948 ft | 440 kts | 306° |
| 2026-04-23 17:07 | 45.07534 | -81.87161 | 39936 ft | 441 kts | 306° |
| 2026-04-23 17:07 | 45.11474 | -81.93820 | 39944 ft | 442 kts | 306° |
| 2026-04-23 17:08 | 45.15399 | -82.00474 | 39946 ft | 443 kts | 306° |
| 2026-04-23 17:08 | 45.19368 | -82.07217 | 39940 ft | 446 kts | 306° |
| 2026-04-23 17:09 | 45.23344 | -82.13986 | 39951 ft | 446 kts | 306° |
| 2026-04-23 17:09 | 45.27302 | -82.20741 | 39942 ft | 447 kts | 306° |
| 2026-04-23 17:10 | 45.31265 | -82.27520 | 39949 ft | 446 kts | 306° |
| 2026-04-23 17:10 | 45.35230 | -82.34321 | 39956 ft | 447 kts | 306° |
| 2026-04-23 17:11 | 45.39173 | -82.41168 | 39944 ft | 447 kts | 305° |
| 2026-04-23 17:11 | 45.43046 | -82.48084 | 39954 ft | 446 kts | 304° |
| 2026-04-23 17:12 | 45.46900 | -82.55043 | 39951 ft | 447 kts | 304° |
| 2026-04-23 17:12 | 45.50745 | -82.62018 | 39943 ft | 447 kts | 304° |
| 2026-04-23 17:13 | 45.54555 | -82.68956 | 39954 ft | 448 kts | 304° |
| 2026-04-23 17:13 | 45.58393 | -82.75961 | 39948 ft | 448 kts | 304° |
| 2026-04-23 17:14 | 45.62228 | -82.82969 | 39946 ft | 448 kts | 304° |
| 2026-04-23 17:14 | 45.66070 | -82.90008 | 39955 ft | 448 kts | 304° |
| 2026-04-23 17:15 | 45.69904 | -82.97054 | 39942 ft | 449 kts | 304° |
| 2026-04-23 17:15 | 45.73727 | -83.04105 | 39950 ft | 449 kts | 304° |
| 2026-04-23 17:16 | 45.77559 | -83.11184 | 39947 ft | 450 kts | 304° |
| 2026-04-23 17:16 | 45.81392 | -83.18282 | 39939 ft | 451 kts | 304° |
| 2026-04-23 17:17 | 45.85197 | -83.25355 | 39950 ft | 451 kts | 304° |
| 2026-04-23 17:17 | 45.89028 | -83.32487 | 39939 ft | 451 kts | 304° |
| 2026-04-23 17:18 | 45.94778 | -83.43211 | 39949 ft | 452 kts | 304° |
| 2026-04-23 17:19 | 45.98605 | -83.50383 | 39937 ft | 452 kts | 304° |
| 2026-04-23 17:19 | 46.02446 | -83.57601 | 39941 ft | 455 kts | 305° |
| 2026-04-23 17:20 | 46.06265 | -83.64794 | 39944 ft | 455 kts | 304° |
| 2026-04-23 17:21 | 46.13950 | -83.79320 | 39947 ft | 454 kts | 304° |
| 2026-04-23 17:21 | 46.19671 | -83.90176 | 39931 ft | 455 kts | 304° |
| 2026-04-23 17:22 | 46.25409 | -84.01111 | 39940 ft | 454 kts | 304° |
| 2026-04-23 17:23 | 46.31122 | -84.12058 | 39935 ft | 454 kts | 304° |
| 2026-04-23 17:24 | 46.36834 | -84.23026 | 39935 ft | 455 kts | 304° |
| 2026-04-23 17:24 | 46.41247 | -84.35012 | 39936 ft | 451 kts | 292° |
| 2026-04-23 17:25 | 46.44837 | -84.47598 | 39929 ft | 451 kts | 289° |
| 2026-04-23 17:26 | 46.48949 | -84.64719 | 39923 ft | 451 kts | 287° |
| 2026-04-23 17:27 | 46.51950 | -84.77659 | 39932 ft | 451 kts | 287° |
| 2026-04-23 17:27 | 46.53945 | -84.86312 | 39916 ft | 451 kts | 287° |
| 2026-04-23 17:28 | 46.55934 | -84.94981 | 39913 ft | 451 kts | 287° |
| 2026-04-23 17:28 | 46.57903 | -85.03618 | 39910 ft | 452 kts | 287° |
| 2026-04-23 17:29 | 46.59874 | -85.12291 | 39896 ft | 452 kts | 287° |
| 2026-04-23 17:30 | 46.62494 | -85.23868 | 39901 ft | 453 kts | 287° |
| 2026-04-23 17:30 | 46.65773 | -85.38413 | 39885 ft | 453 kts | 287° |
| 2026-04-23 17:31 | 46.67716 | -85.47089 | 39896 ft | 453 kts | 287° |
| 2026-04-23 17:31 | 46.69667 | -85.55838 | 39878 ft | 454 kts | 287° |
| 2026-04-23 17:32 | 46.71606 | -85.64576 | 39868 ft | 453 kts | 287° |
| 2026-04-23 17:32 | 46.73545 | -85.73345 | 39879 ft | 454 kts | 287° |
| 2026-04-23 17:33 | 46.75458 | -85.82054 | 39871 ft | 454 kts | 287° |
| 2026-04-23 17:33 | 46.77377 | -85.90823 | 39864 ft | 453 kts | 287° |
| 2026-04-23 17:34 | 46.79292 | -85.99596 | 39857 ft | 453 kts | 287° |
| 2026-04-23 17:35 | 46.82157 | -86.12775 | 39862 ft | 454 kts | 287° |
| 2026-04-23 17:35 | 46.85008 | -86.25985 | 39845 ft | 454 kts | 287° |
| 2026-04-23 17:36 | 46.86884 | -86.34731 | 39847 ft | 454 kts | 287° |
| 2026-04-23 17:36 | 46.88763 | -86.43529 | 39852 ft | 454 kts | 287° |
| 2026-04-23 17:37 | 46.90640 | -86.52345 | 39839 ft | 454 kts | 287° |
| 2026-04-23 17:38 | 46.93440 | -86.65572 | 39850 ft | 454 kts | 287° |
| 2026-04-23 17:38 | 46.95296 | -86.74405 | 39833 ft | 454 kts | 287° |
| 2026-04-23 17:39 | 46.97138 | -86.83193 | 39827 ft | 453 kts | 287° |
| 2026-04-23 17:39 | 46.98982 | -86.92027 | 39836 ft | 454 kts | 287° |
| 2026-04-23 17:40 | 47.00519 | -86.99421 | 39825 ft | 455 kts | 287° |
| 2026-04-23 17:40 | 47.02739 | -87.08072 | 39827 ft | 455 kts | 295° |
| 2026-04-23 17:41 | 47.05628 | -87.16355 | 39820 ft | 456 kts | 297° |
| 2026-04-23 17:41 | 47.10008 | -87.28722 | 39814 ft | 455 kts | 296° |
| 2026-04-23 17:42 | 47.14332 | -87.41139 | 39802 ft | 455 kts | 296° |
| 2026-04-23 17:43 | 47.17192 | -87.49380 | 39788 ft | 455 kts | 296° |
| 2026-04-23 17:43 | 47.20062 | -87.57665 | 39777 ft | 455 kts | 296° |
| 2026-04-23 17:44 | 47.22930 | -87.65969 | 39778 ft | 455 kts | 296° |
| 2026-04-23 17:44 | 47.27216 | -87.78437 | 39777 ft | 455 kts | 296° |
| 2026-04-23 17:45 | 47.31482 | -87.90923 | 39782 ft | 455 kts | 296° |
| 2026-04-23 17:46 | 47.35730 | -88.03400 | 39770 ft | 455 kts | 296° |
| 2026-04-23 17:46 | 47.38576 | -88.11788 | 39780 ft | 455 kts | 296° |
| 2026-04-23 17:47 | 47.41383 | -88.20094 | 39773 ft | 455 kts | 296° |
| 2026-04-23 17:48 | 47.45605 | -88.32637 | 39766 ft | 454 kts | 296° |
| 2026-04-23 17:48 | 47.48419 | -88.41029 | 39771 ft | 455 kts | 296° |
| 2026-04-23 17:49 | 47.51208 | -88.49374 | 39755 ft | 454 kts | 295° |
| 2026-04-23 17:49 | 47.54005 | -88.57771 | 39743 ft | 455 kts | 295° |
| 2026-04-23 17:50 | 47.56796 | -88.66177 | 39751 ft | 454 kts | 295° |
| 2026-04-23 17:50 | 47.60945 | -88.78724 | 39741 ft | 453 kts | 295° |
| 2026-04-23 17:51 | 47.63714 | -88.87135 | 39745 ft | 454 kts | 295° |
| 2026-04-23 17:52 | 47.67851 | -88.99748 | 39736 ft | 453 kts | 295° |
| 2026-04-23 17:52 | 47.71950 | -89.12307 | 39739 ft | 452 kts | 295° |
| 2026-04-23 17:53 | 47.76039 | -89.24899 | 39718 ft | 450 kts | 294° |
| 2026-04-23 17:54 | 47.78761 | -89.33318 | 39707 ft | 451 kts | 294° |
| 2026-04-23 17:54 | 47.82805 | -89.45866 | 39706 ft | 450 kts | 294° |
| 2026-04-23 17:55 | 47.86841 | -89.58465 | 39704 ft | 449 kts | 294° |
| 2026-04-23 17:56 | 47.89519 | -89.66861 | 39707 ft | 450 kts | 294° |
| 2026-04-23 17:56 | 47.93532 | -89.79483 | 39695 ft | 448 kts | 294° |
| 2026-04-23 17:57 | 47.96177 | -89.87848 | 39706 ft | 449 kts | 294° |
| 2026-04-23 17:58 | 48.00003 | -90.00591 | 39692 ft | 448 kts | 290° |
| 2026-04-23 17:58 | 48.02212 | -90.09310 | 39697 ft | 448 kts | 289° |
| 2026-04-23 17:59 | 48.04336 | -90.18065 | 39697 ft | 448 kts | 288° |
| 2026-04-23 17:59 | 48.06444 | -90.26831 | 39688 ft | 448 kts | 288° |
| 2026-04-23 18:00 | 48.08525 | -90.35536 | 39700 ft | 448 kts | 288° |
| 2026-04-23 18:00 | 48.10615 | -90.44327 | 39689 ft | 448 kts | 288° |
| 2026-04-23 18:01 | 48.12688 | -90.53097 | 39689 ft | 447 kts | 288° |
| 2026-04-23 18:01 | 48.14758 | -90.61891 | 39696 ft | 448 kts | 288° |
| 2026-04-23 18:02 | 48.16814 | -90.70652 | 39682 ft | 448 kts | 288° |
| 2026-04-23 18:02 | 48.18868 | -90.79454 | 39692 ft | 447 kts | 287° |
| 2026-04-23 18:03 | 48.20920 | -90.88283 | 39689 ft | 448 kts | 287° |
| 2026-04-23 18:03 | 48.22960 | -90.97092 | 39679 ft | 447 kts | 287° |
| 2026-04-23 18:04 | 48.24991 | -91.05900 | 39691 ft | 448 kts | 287° |
| 2026-04-23 18:04 | 48.27023 | -91.14742 | 39680 ft | 447 kts | 287° |
| 2026-04-23 18:05 | 48.29034 | -91.23533 | 39676 ft | 448 kts | 287° |
| 2026-04-23 18:05 | 48.31049 | -91.32376 | 39676 ft | 447 kts | 287° |
| 2026-04-23 18:06 | 48.33059 | -91.41239 | 39673 ft | 448 kts | 286° |
| 2026-04-23 18:06 | 48.35062 | -91.50104 | 39673 ft | 447 kts | 286° |
| 2026-04-23 18:07 | 48.37057 | -91.58965 | 39674 ft | 447 kts | 286° |
| 2026-04-23 18:07 | 48.39042 | -91.67828 | 39669 ft | 447 kts | 286° |
| 2026-04-23 18:08 | 48.40690 | -91.75216 | 39667 ft | 447 kts | 286° |
| 2026-04-23 18:08 | 48.42983 | -91.85536 | 39662 ft | 447 kts | 286° |
| 2026-04-23 18:09 | 48.44950 | -91.94429 | 39676 ft | 447 kts | 286° |
| 2026-04-23 18:09 | 48.46913 | -92.03338 | 39665 ft | 447 kts | 285° |
| 2026-04-23 18:10 | 48.48863 | -92.12231 | 39670 ft | 447 kts | 285° |
| 2026-04-23 18:10 | 48.50797 | -92.21091 | 39677 ft | 447 kts | 285° |
| 2026-04-23 18:11 | 48.52754 | -92.30083 | 39665 ft | 448 kts | 285° |
| 2026-04-23 18:11 | 48.54676 | -92.38946 | 39675 ft | 448 kts | 285° |
| 2026-04-23 18:12 | 48.56610 | -92.47913 | 39670 ft | 448 kts | 285° |
| 2026-04-23 18:12 | 48.58533 | -92.56879 | 39659 ft | 448 kts | 285° |
| 2026-04-23 18:13 | 48.60434 | -92.65794 | 39670 ft | 448 kts | 285° |
| 2026-04-23 18:13 | 48.62345 | -92.74781 | 39659 ft | 449 kts | 285° |
| 2026-04-23 18:14 | 48.64252 | -92.83778 | 39652 ft | 449 kts | 285° |
| 2026-04-23 18:14 | 48.66155 | -92.92787 | 39639 ft | 449 kts | 285° |
| 2026-04-23 18:15 | 48.68039 | -93.01757 | 39640 ft | 449 kts | 285° |
| 2026-04-23 18:15 | 48.69924 | -93.10778 | 39634 ft | 448 kts | 284° |
| 2026-04-23 18:16 | 48.71798 | -93.19803 | 39624 ft | 449 kts | 284° |
| 2026-04-23 18:16 | 48.73668 | -93.28843 | 39636 ft | 449 kts | 284° |
| 2026-04-23 18:17 | 48.76453 | -93.42367 | 39622 ft | 449 kts | 284° |
| 2026-04-23 18:17 | 48.78305 | -93.51410 | 39635 ft | 449 kts | 284° |
| 2026-04-23 18:18 | 48.80165 | -93.60476 | 39633 ft | 450 kts | 284° |
| 2026-04-23 18:18 | 48.82027 | -93.69544 | 39620 ft | 449 kts | 284° |
| 2026-04-23 18:19 | 48.83873 | -93.78566 | 39630 ft | 450 kts | 284° |
| 2026-04-23 18:19 | 48.85726 | -93.87642 | 39625 ft | 450 kts | 284° |
| 2026-04-23 18:20 | 48.87572 | -93.96750 | 39619 ft | 451 kts | 284° |
| 2026-04-23 18:20 | 48.89411 | -94.05868 | 39631 ft | 451 kts | 284° |
| 2026-04-23 18:21 | 48.91240 | -94.14976 | 39619 ft | 451 kts | 284° |
| 2026-04-23 18:21 | 48.93063 | -94.24108 | 39623 ft | 452 kts | 284° |
| 2026-04-23 18:22 | 48.94871 | -94.33211 | 39630 ft | 452 kts | 284° |
| 2026-04-23 18:22 | 48.96685 | -94.42377 | 39619 ft | 452 kts | 284° |
| 2026-04-23 18:23 | 48.99392 | -94.56135 | 39632 ft | 452 kts | 284° |
| 2026-04-23 18:24 | 49.02086 | -94.69922 | 39622 ft | 452 kts | 284° |
| 2026-04-23 18:25 | 49.04751 | -94.83663 | 39627 ft | 453 kts | 283° |
| 2026-04-23 18:25 | 49.06530 | -94.92876 | 39620 ft | 452 kts | 284° |
| 2026-04-23 18:26 | 49.08303 | -95.02102 | 39633 ft | 453 kts | 283° |
| 2026-04-23 18:26 | 49.10067 | -95.11337 | 39623 ft | 453 kts | 283° |
| 2026-04-23 18:27 | 49.11813 | -95.20529 | 39627 ft | 453 kts | 283° |
| 2026-04-23 18:27 | 49.13557 | -95.29778 | 39633 ft | 453 kts | 283° |
| 2026-04-23 18:28 | 49.15300 | -95.39041 | 39626 ft | 454 kts | 283° |
| 2026-04-23 18:28 | 49.16743 | -95.46731 | 39627 ft | 452 kts | 283° |
| 2026-04-23 18:29 | 49.18748 | -95.57505 | 39622 ft | 453 kts | 283° |
| 2026-04-23 18:29 | 49.20467 | -95.66784 | 39622 ft | 454 kts | 283° |
| 2026-04-23 18:30 | 49.21897 | -95.74531 | 39635 ft | 455 kts | 283° |
| 2026-04-23 18:30 | 49.23604 | -95.83851 | 39625 ft | 455 kts | 283° |
| 2026-04-23 18:31 | 49.25311 | -95.93210 | 39618 ft | 456 kts | 283° |
| 2026-04-23 18:31 | 49.27016 | -96.02587 | 39608 ft | 456 kts | 283° |
| 2026-04-23 18:32 | 49.28724 | -96.11960 | 39613 ft | 457 kts | 283° |
| 2026-04-23 18:32 | 49.30400 | -96.21307 | 39608 ft | 456 kts | 283° |
| 2026-04-23 18:33 | 49.32077 | -96.30709 | 39607 ft | 458 kts | 283° |
| 2026-04-23 18:33 | 49.33765 | -96.40142 | 39599 ft | 456 kts | 283° |
| 2026-04-23 18:34 | 49.35429 | -96.49536 | 39605 ft | 457 kts | 283° |
| 2026-04-23 18:34 | 49.37080 | -96.58948 | 39600 ft | 455 kts | 282° |
| 2026-04-23 18:35 | 49.38724 | -96.68343 | 39598 ft | 456 kts | 282° |
| 2026-04-23 18:35 | 49.40357 | -96.77649 | 39581 ft | 455 kts | 282° |
| 2026-04-23 18:36 | 49.41994 | -96.87060 | 39604 ft | 457 kts | 282° |
| 2026-04-23 18:36 | 49.43623 | -96.96497 | 39603 ft | 458 kts | 283° |
| 2026-04-23 18:37 | 49.45230 | -97.05945 | 39587 ft | 456 kts | 282° |
| 2026-04-23 18:37 | 49.46852 | -97.15412 | 39582 ft | 460 kts | 282° |
| 2026-04-23 18:38 | 49.48448 | -97.24862 | 39575 ft | 458 kts | 283° |
| 2026-04-23 18:38 | 49.50056 | -97.34367 | 39574 ft | 460 kts | 282° |
| 2026-04-23 18:39 | 49.51654 | -97.43904 | 39591 ft | 460 kts | 282° |
| 2026-04-23 18:39 | 49.53255 | -97.53474 | 39541 ft | 461 kts | 282° |
| 2026-04-23 18:40 | 49.54845 | -97.63069 | 39584 ft | 463 kts | 282° |
| 2026-04-23 18:40 | 49.56420 | -97.72632 | 39608 ft | 464 kts | 282° |
| 2026-04-23 18:41 | 49.58019 | -97.82279 | 39565 ft | 463 kts | 282° |
| 2026-04-23 18:41 | 49.59589 | -97.91908 | 39577 ft | 463 kts | 282° |
| 2026-04-23 18:42 | 49.61163 | -98.01581 | 39589 ft | 464 kts | 282° |
| 2026-04-23 18:42 | 49.62701 | -98.11228 | 39581 ft | 465 kts | 282° |
| 2026-04-23 18:43 | 49.64251 | -98.20912 | 39595 ft | 468 kts | 282° |
| 2026-04-23 18:43 | 49.65824 | -98.30647 | 39578 ft | 463 kts | 282° |
| 2026-04-23 18:44 | 49.67363 | -98.40260 | 39582 ft | 464 kts | 282° |
| 2026-04-23 18:44 | 49.68886 | -98.49974 | 39590 ft | 467 kts | 282° |
| 2026-04-23 18:45 | 49.70388 | -98.59699 | 39616 ft | 461 kts | 282° |
| 2026-04-23 18:45 | 49.71899 | -98.69343 | 39599 ft | 462 kts | 282° |
| 2026-04-23 18:46 | 49.73396 | -98.79009 | 39611 ft | 464 kts | 282° |
| 2026-04-23 18:46 | 49.74879 | -98.88722 | 39592 ft | 464 kts | 282° |
| 2026-04-23 18:47 | 49.76358 | -98.98361 | 39593 ft | 464 kts | 282° |
| 2026-04-23 18:47 | 49.77830 | -99.08059 | 39592 ft | 462 kts | 282° |
| 2026-04-23 18:48 | 49.79293 | -99.17757 | 39591 ft | 462 kts | 282° |
| 2026-04-23 18:48 | 49.80756 | -99.27470 | 39597 ft | 465 kts | 282° |
| 2026-04-23 18:49 | 49.82211 | -99.37205 | 39577 ft | 463 kts | 282° |
| 2026-04-23 18:49 | 49.83655 | -99.46929 | 39585 ft | 464 kts | 281° |
| 2026-04-23 18:50 | 49.84846 | -99.55028 | 39581 ft | 464 kts | 281° |
| 2026-04-23 18:50 | 49.86515 | -99.66440 | 39569 ft | 464 kts | 282° |
| 2026-04-23 18:51 | 49.87932 | -99.76156 | 39581 ft | 465 kts | 281° |
| 2026-04-23 18:51 | 49.89354 | -99.85968 | 39568 ft | 465 kts | 281° |
| 2026-04-23 18:52 | 49.91471 | -99.95466 | 39579 ft | 467 kts | 291° |
| 2026-04-23 18:52 | 49.94175 | -100.04580 | 39565 ft | 468 kts | 294° |
| 2026-04-23 18:53 | 49.97095 | -100.13627 | 39570 ft | 468 kts | 295° |
| 2026-04-23 18:53 | 50.00069 | -100.22649 | 39578 ft | 468 kts | 295° |
| 2026-04-23 18:54 | 50.03051 | -100.31675 | 39567 ft | 469 kts | 295° |
| 2026-04-23 18:54 | 50.06008 | -100.40646 | 39579 ft | 469 kts | 295° |
| 2026-04-23 18:55 | 50.08975 | -100.49680 | 39580 ft | 469 kts | 295° |
| 2026-04-23 18:55 | 50.11936 | -100.58735 | 39574 ft | 469 kts | 295° |
| 2026-04-23 18:56 | 50.14394 | -100.66273 | 39586 ft | 468 kts | 295° |
| 2026-04-23 18:56 | 50.17827 | -100.76838 | 39582 ft | 466 kts | 295° |
| 2026-04-23 18:57 | 50.20732 | -100.85818 | 39583 ft | 467 kts | 295° |
| 2026-04-23 18:57 | 50.23659 | -100.94894 | 39595 ft | 467 kts | 296° |
| 2026-04-23 18:58 | 50.26574 | -101.03968 | 39589 ft | 466 kts | 296° |
| 2026-04-23 18:58 | 50.29476 | -101.13033 | 39595 ft | 465 kts | 296° |
| 2026-04-23 18:59 | 50.32352 | -101.22050 | 39603 ft | 466 kts | 296° |
| 2026-04-23 18:59 | 50.35239 | -101.31134 | 39595 ft | 465 kts | 296° |
| 2026-04-23 19:00 | 50.38111 | -101.40206 | 39611 ft | 464 kts | 296° |
| 2026-04-23 19:00 | 50.40961 | -101.49238 | 39628 ft | 465 kts | 296° |
| 2026-04-23 19:01 | 50.43816 | -101.58323 | 39633 ft | 464 kts | 296° |
| 2026-04-23 19:01 | 50.46670 | -101.67431 | 39630 ft | 464 kts | 296° |
| 2026-04-23 19:02 | 50.49033 | -101.75002 | 39642 ft | 464 kts | 296° |
| 2026-04-23 19:02 | 50.52332 | -101.85627 | 39641 ft | 465 kts | 295° |
| 2026-04-23 19:03 | 50.55162 | -101.94771 | 39643 ft | 464 kts | 295° |
| 2026-04-23 19:03 | 50.57980 | -102.03905 | 39656 ft | 463 kts | 296° |
| 2026-04-23 19:04 | 50.60789 | -102.13027 | 39644 ft | 462 kts | 296° |
| 2026-04-23 19:04 | 50.63584 | -102.22146 | 39657 ft | 463 kts | 296° |
| 2026-04-23 19:05 | 50.66352 | -102.31227 | 39666 ft | 462 kts | 296° |
| 2026-04-23 19:05 | 50.69132 | -102.40369 | 39673 ft | 463 kts | 296° |
| 2026-04-23 19:06 | 50.71909 | -102.49539 | 39665 ft | 462 kts | 296° |
| 2026-04-23 19:06 | 50.74673 | -102.58700 | 39684 ft | 463 kts | 295° |
| 2026-04-23 19:07 | 50.77432 | -102.67886 | 39687 ft | 463 kts | 295° |
| 2026-04-23 19:07 | 50.80188 | -102.77089 | 39674 ft | 462 kts | 295° |
| 2026-04-23 19:08 | 50.82930 | -102.86280 | 39685 ft | 462 kts | 295° |
| 2026-04-23 19:08 | 50.85663 | -102.95480 | 39680 ft | 461 kts | 295° |
| 2026-04-23 19:09 | 50.88386 | -103.04686 | 39690 ft | 461 kts | 295° |
| 2026-04-23 19:09 | 50.91089 | -103.13852 | 39709 ft | 462 kts | 295° |
| 2026-04-23 19:10 | 50.93793 | -103.23052 | 39719 ft | 460 kts | 295° |
| 2026-04-23 19:10 | 50.96491 | -103.32272 | 39720 ft | 461 kts | 295° |
| 2026-04-23 19:11 | 50.99185 | -103.41510 | 39730 ft | 461 kts | 295° |
| 2026-04-23 19:11 | 51.01865 | -103.50742 | 39740 ft | 460 kts | 295° |
| 2026-04-23 19:11 | 51.03204 | -103.55372 | 39408 ft | 460 kts | 295° |
| 2026-04-23 19:12 | 51.04084 | -103.58417 | 39066 ft | 459 kts | 295° |
| 2026-04-23 19:12 | 51.05857 | -103.64573 | 38336 ft | 456 kts | 295° |
| 2026-04-23 19:12 | 51.07158 | -103.69092 | 37783 ft | 453 kts | 295° |
| 2026-04-23 19:12 | 51.08462 | -103.73628 | 37222 ft | 450 kts | 295° |
| 2026-04-23 19:13 | 51.09756 | -103.78138 | 36662 ft | 447 kts | 295° |
| 2026-04-23 19:13 | 51.11044 | -103.82635 | 36102 ft | 444 kts | 295° |
| 2026-04-23 19:13 | 51.12317 | -103.87091 | 35546 ft | 441 kts | 295° |
| 2026-04-23 19:13 | 51.13581 | -103.91527 | 34992 ft | 439 kts | 295° |
| 2026-04-23 19:14 | 51.14840 | -103.95952 | 34440 ft | 437 kts | 296° |
| 2026-04-23 19:14 | 51.16088 | -104.00348 | 33890 ft | 435 kts | 296° |
| 2026-04-23 19:14 | 51.17337 | -104.04756 | 33344 ft | 435 kts | 296° |
| 2026-04-23 19:14 | 51.18582 | -104.09158 | 32798 ft | 437 kts | 297° |
| 2026-04-23 19:15 | 51.19834 | -104.13585 | 32247 ft | 439 kts | 297° |
| 2026-04-23 19:15 | 51.21088 | -104.18031 | 31685 ft | 438 kts | 297° |
| 2026-04-23 19:15 | 51.22321 | -104.22415 | 31128 ft | 437 kts | 297° |
| 2026-04-23 19:15 | 51.23557 | -104.26820 | 30578 ft | 433 kts | 297° |
| 2026-04-23 19:16 | 51.24786 | -104.31207 | 30032 ft | 428 kts | 297° |
| 2026-04-23 19:16 | 51.25989 | -104.35509 | 29496 ft | 422 kts | 298° |
| 2026-04-23 19:16 | 51.27176 | -104.39761 | 28965 ft | 415 kts | 298° |
| 2026-04-23 19:17 | 51.29467 | -104.47995 | 27941 ft | 402 kts | 298° |
| 2026-04-23 19:17 | 51.30594 | -104.52054 | 27431 ft | 396 kts | 298° |
| 2026-04-23 19:17 | 51.31706 | -104.56058 | 26927 ft | 391 kts | 298° |
| 2026-04-23 19:17 | 51.32802 | -104.60015 | 26431 ft | 386 kts | 299° |
| 2026-04-23 19:18 | 51.33884 | -104.63926 | 25946 ft | 382 kts | 299° |
| 2026-04-23 19:18 | 51.34948 | -104.67786 | 25467 ft | 378 kts | 299° |
| 2026-04-23 19:18 | 51.35648 | -104.70331 | 25160 ft | 376 kts | 299° |
| 2026-04-23 19:18 | 51.37040 | -104.75382 | 24561 ft | 373 kts | 299° |
| 2026-04-23 19:19 | 51.38770 | -104.81676 | 23797 ft | 369 kts | 299° |
| 2026-04-23 19:19 | 51.39802 | -104.85437 | 23340 ft | 367 kts | 299° |
| 2026-04-23 19:20 | 51.41839 | -104.92891 | 22414 ft | 363 kts | 298° |
| 2026-04-23 19:20 | 51.42847 | -104.96588 | 21947 ft | 362 kts | 298° |
| 2026-04-23 19:20 | 51.43852 | -105.00285 | 21483 ft | 360 kts | 298° |
| 2026-04-23 19:20 | 51.44845 | -105.03939 | 21033 ft | 357 kts | 298° |
| 2026-04-23 19:21 | 51.45831 | -105.07576 | 20591 ft | 354 kts | 297° |
| 2026-04-23 19:21 | 51.47784 | -105.14789 | 19699 ft | 350 kts | 297° |
| 2026-04-23 19:21 | 51.48741 | -105.18337 | 19251 ft | 348 kts | 297° |
| 2026-04-23 19:22 | 51.49708 | -105.21922 | 18801 ft | 346 kts | 297° |
| 2026-04-23 19:22 | 51.50659 | -105.25453 | 18370 ft | 344 kts | 296° |
| 2026-04-23 19:22 | 51.52540 | -105.32459 | 17527 ft | 339 kts | 296° |
| 2026-04-23 19:23 | 51.53468 | -105.35921 | 17103 ft | 337 kts | 296° |
| 2026-04-23 19:23 | 51.54377 | -105.39324 | 16676 ft | 334 kts | 296° |
| 2026-04-23 19:23 | 51.55395 | -105.42662 | 16214 ft | 329 kts | 302° |
| 2026-04-23 19:24 | 51.57796 | -105.48762 | 15479 ft | 316 kts | 304° |
| 2026-04-23 19:24 | 51.58971 | -105.51691 | 15225 ft | 307 kts | 305° |
| 2026-04-23 19:24 | 51.61197 | -105.57262 | 14851 ft | 286 kts | 304° |
| 2026-04-23 19:25 | 51.63293 | -105.62518 | 14414 ft | 274 kts | 305° |
| 2026-04-23 19:25 | 51.65343 | -105.67658 | 13944 ft | 276 kts | 305° |
| 2026-04-23 19:26 | 51.67416 | -105.72869 | 13435 ft | 274 kts | 304° |
| 2026-04-23 19:26 | 51.68438 | -105.75444 | 13197 ft | 267 kts | 304° |
| 2026-04-23 19:27 | 51.70366 | -105.80318 | 12827 ft | 250 kts | 305° |
| 2026-04-23 19:27 | 51.73075 | -105.87163 | 12205 ft | 233 kts | 305° |
| 2026-04-23 19:28 | 51.74774 | -105.91474 | 11770 ft | 224 kts | 305° |
| 2026-04-23 19:28 | 51.76410 | -105.95630 | 11344 ft | 215 kts | 305° |
| 2026-04-23 19:29 | 51.77205 | -105.97647 | 11145 ft | 211 kts | 305° |
| 2026-04-23 19:29 | 51.78750 | -106.01572 | 10761 ft | 203 kts | 306° |
| 2026-04-23 19:30 | 51.80242 | -106.05372 | 10397 ft | 197 kts | 306° |
| 2026-04-23 19:30 | 51.80966 | -106.07214 | 10202 ft | 196 kts | 306° |
| 2026-04-23 19:30 | 51.82427 | -106.10939 | 9771 ft | 196 kts | 306° |
| 2026-04-23 19:31 | 51.83156 | -106.12798 | 9610 ft | 194 kts | 306° |
| 2026-04-23 19:31 | 51.83876 | -106.14641 | 9443 ft | 192 kts | 306° |
| 2026-04-23 19:31 | 51.84586 | -106.16465 | 9280 ft | 191 kts | 306° |
| 2026-04-23 19:31 | 51.85296 | -106.18284 | 9096 ft | 191 kts | 306° |
| 2026-04-23 19:32 | 51.86004 | -106.20097 | 8884 ft | 189 kts | 306° |
| 2026-04-23 19:32 | 51.86701 | -106.21886 | 8688 ft | 186 kts | 306° |
| 2026-04-23 19:32 | 51.87383 | -106.23639 | 8526 ft | 182 kts | 306° |
| 2026-04-23 19:32 | 51.88051 | -106.25352 | 8370 ft | 179 kts | 306° |
| 2026-04-23 19:33 | 51.88702 | -106.27024 | 8226 ft | 176 kts | 306° |
| 2026-04-23 19:33 | 51.89357 | -106.28705 | 8048 ft | 176 kts | 306° |
| 2026-04-23 19:33 | 51.90660 | -106.32059 | 7681 ft | 176 kts | 306° |
| 2026-04-23 19:34 | 51.91312 | -106.33731 | 7525 ft | 175 kts | 306° |
| 2026-04-23 19:34 | 51.91954 | -106.35398 | 7370 ft | 174 kts | 306° |
| 2026-04-23 19:34 | 51.93228 | -106.38695 | 7059 ft | 171 kts | 306° |
| 2026-04-23 19:35 | 51.93860 | -106.40330 | 6881 ft | 171 kts | 306° |
| 2026-04-23 19:35 | 51.94492 | -106.41958 | 6728 ft | 169 kts | 306° |
| 2026-04-23 19:35 | 51.95104 | -106.43537 | 6562 ft | 161 kts | 306° |
| 2026-04-23 19:35 | 51.95688 | -106.45047 | 6369 ft | 156 kts | 306° |
| 2026-04-23 19:36 | 51.96255 | -106.46517 | 6219 ft | 150 kts | 306° |
| 2026-04-23 19:36 | 51.96793 | -106.47913 | 6104 ft | 142 kts | 306° |
| 2026-04-23 19:36 | 51.97303 | -106.49241 | 5993 ft | 136 kts | 306° |
| 2026-04-23 19:36 | 51.97799 | -106.50528 | 5877 ft | 133 kts | 306° |
| 2026-04-23 19:37 | 51.98287 | -106.51797 | 5748 ft | 132 kts | 306° |
| 2026-04-23 19:37 | 51.98767 | -106.53050 | 5625 ft | 132 kts | 304° |
| 2026-04-23 19:37 | 51.98990 | -106.54498 | 5564 ft | 131 kts | 285° |
| 2026-04-23 19:37 | 51.99086 | -106.55970 | 5596 ft | 132 kts | 288° |
| 2026-04-23 19:38 | 51.99334 | -106.57423 | 5617 ft | 134 kts | 297° |
| 2026-04-23 19:38 | 51.99784 | -106.58749 | 5546 ft | 135 kts | 307° |
| 2026-04-23 19:38 | 52.00402 | -106.59879 | 5388 ft | 133 kts | 317° |
| 2026-04-23 19:38 | 52.01129 | -106.60808 | 5214 ft | 133 kts | 324° |
| 2026-04-23 19:39 | 52.01919 | -106.61577 | 5014 ft | 133 kts | 329° |
| 2026-04-23 19:39 | 52.02743 | -106.62224 | 4809 ft | 130 kts | 333° |
| 2026-04-23 19:39 | 52.03580 | -106.62797 | 4628 ft | 130 kts | 334° |
| 2026-04-23 19:39 | 52.04431 | -106.63302 | 4463 ft | 131 kts | 337° |
| 2026-04-23 19:40 | 52.05294 | -106.63733 | 4295 ft | 131 kts | 340° |
| 2026-04-23 19:40 | 52.06175 | -106.64141 | 4119 ft | 132 kts | 340° |
| 2026-04-23 19:40 | 52.07050 | -106.64592 | 3950 ft | 132 kts | 338° |
| 2026-04-23 19:40 | 52.07910 | -106.65139 | 3774 ft | 133 kts | 336° |
| 2026-04-23 19:41 | 52.08789 | -106.65630 | 3600 ft | 134 kts | 339° |
| 2026-04-23 19:41 | 52.09689 | -106.66070 | 3418 ft | 135 kts | 339° |
| 2026-04-23 19:41 | 52.10578 | -106.66567 | 3237 ft | 136 kts | 337° |
| 2026-04-23 19:41 | 52.11468 | -106.67067 | 3046 ft | 138 kts | 339° |
| 2026-04-23 19:42 | 52.12393 | -106.67550 | 2874 ft | 139 kts | 339° |
| 2026-04-23 19:42 | 52.13310 | -106.68055 | 2690 ft | 139 kts | 339° |
| 2026-04-23 19:42 | 52.14219 | -106.68553 | 2512 ft | 140 kts | 339° |
| 2026-04-23 19:42 | 52.15180 | -106.69014 | 2057 ft | 147 kts | 335° |
| 2026-04-23 19:43 | 52.16120 | -106.69588 | 1724 ft | 140 kts | 332° |
| 2026-04-23 19:43 | 52.16930 | -106.70068 | 1666 ft | 91 kts | 348° |
| 2026-04-23 19:43 | 52.17265 | -106.70242 | 1666 ft | 21 kts | 356° |
| 2026-04-23 19:43 | 52.17324 | -106.70148 | 1666 ft | 13 kts | 93° |
| 2026-04-23 19:44 | 52.17312 | -106.69966 | 1666 ft | 19 kts | 101° |
| 2026-04-23 19:44 | 52.17281 | -106.69721 | 1666 ft | 25 kts | 102° |
| 2026-04-23 19:44 | 52.17244 | -106.69423 | 1666 ft | 29 kts | 101° |
| 2026-04-23 19:44 | 52.17213 | -106.69164 | 1666 ft | 20 kts | 113° |
| 2026-04-23 19:45 | 52.17133 | -106.69151 | 1666 ft | 11 kts | 212° |
| 2026-04-23 19:45 | 52.17083 | -106.69133 | 1666 ft | 4 kts | 139° |
| 2026-04-23 19:45 | 52.17079 | -106.69126 | 1666 ft | 0 kts | 134° |